Terminal Aerodrome Forecast
Issued by NWS Binghamton, NY

Home | Current Version | Previous Version | Text Only | Print | Product List | Glossary On
Versions: 1 2 3 4 5 6 7 8 9 10 11 12 13 14 15 16 17 18 19 20 21 22
000
FTUS41 KBGM 252009 AAA
TAFAVP
TAF AMD
KAVP 252009Z 2520/2618 24012G26KT 5SM SHRA BR SCT015 OVC035
      TEMPO 2520/2522 22020G35KT 2SM +TSRA BR OVC015CB
     FM252200 26010G20KT P6SM -SHRA SCT025 OVC040
     FM260000 29015G25KT P6SM SCT025 OVC040
     FM261400 29012G22KT P6SM BKN040=

USA.gov is the U.S. government's official web portal to all federal, state and local government web resources and services.